CYDP/YDP METAR and TAF weather

Enter ICAO airport designator
Station Type Date Time Source
CYDP METAR 2022/01/29 13:00 UTC NOAA

CYDP 291300Z 25012G24KT 15SM SKC M24/M32 A3026 RMK SLP248


Station Type Date Time Source
CYDP Decoded METAR 2022/01/29 13:00 UTC NOAA

Nain, Nfld, Canada (CYDP) 56-33N 061-41W 7M
Jan 29, 2022 - 08:00 AM EST / 2022.01.29 1300 UTC
Wind: from the WSW (250 degrees) at 14 MPH (12 KT) gusting to 28 MPH (24 KT):0
Visibility: 15 mile(s):0
Sky conditions: clear
Temperature: -11 F (-24 C)
Windchill: -32 F (-36 C):2
Dew Point: -25 F (-32 C)
Relative Humidity: 47%
Pressure (altimeter): 30.26 in. Hg (1024 hPa)
ob: CYDP 291300Z 25012G24KT 15SM SKC M24/M32 A3026 RMK SLP248
cycle: 13

Station Type Date Time Source
CYDP TAF 2022/01/28 20:09 UTC NOAA

TAF
AMD TAF
AMD CYDP 282008Z 2820/2824 27015G25KT P6SM FEW020 FEW220
TEMPO 2820/2824 BKN020
RMK NXT FCST BY 291100Z

Example: see airport list